Cloverdale, Oregon
Current Conditions -  °F | °C
As of 6:15 PM on Saturday 20 Dec 2014 (Local Time) from KTMK Reporting Station
Drizzle Drizzle  
Wind Chill: 57°   Ceiling: 1000
Heat Index: 57°   Visibility: 5mi
Dew Point: 55°   Wind: 18mph
Humidity: 94%   Direction: 220°SW
Pressure: 29.69"   Gusts: 33mph
Location:  45.21°N, 123.89°W
Report Text: KTMK 210215Z AUTO 22016G29KT 5SM -DZ OVC010 14/13 A2969 RMK AO2
Loading
Personal Weather Stations






























Interactive Weather Map New forecast layout! Learn more

10-Day Weather Forecast

Advertisements
Track Severe Weather on mobile